Flight Track Log - Related Links

Times and Time Zones

All times are in EDT time to prevent confusion due to time zone crossing. See the USC110 flight status page for this flight to view local times or setup timezone preferences in your user account.

Time Position Orientation Groundspeed Altitude Reporting Facility
EDT Latitude Longitude Course Direction KTS MPH feet Rate Location/Type
Fri 10:56:12 PM 41.5544 -81.6681 355° North 131 151 1,900  Level Cleveland Center
Fri 10:57:13 PM 41.5792 -81.7044 346° North 124 143 3,100 1,031 Climbing Cleveland Center
Fri 10:58:20 PM 41.5975 -81.7547 296° West 134 154 4,100 898 Climbing Cleveland Center
Fri 10:59:20 PM 41.6136 -81.7997 296° West 134 154 5,000 893 Climbing Cleveland Center
Fri 11:00:21 PM 41.6300 -81.8444 296° West 134 154 5,900 492 Climbing Cleveland Center
Fri 11:01:22 PM 41.6522 -81.8919 302° West 165 190 6,000 50 Climbing Cleveland Center
Fri 11:02:22 PM 41.6725 -81.9536 294° West 164 189 6,000 -50 Level Cleveland Center
Fri 11:03:23 PM 41.6928 -82.0042 298° West 162 186 5,900 -50 Descending Cleveland Center
Fri 11:04:23 PM 41.7150 -82.0575 299° West 163 188 5,900  Level Cleveland Center
Fri 11:05:24 PM 41.7308 -82.1106 292° West 159 183 5,900  Level Cleveland Center
Fri 11:06:24 PM 41.7508 -82.1667 296° West 163 188 5,900  Level Cleveland Center
Fri 11:07:03 PM 41.7672 -82.2006 303° West 163 188 5,900 -79 Level Cleveland Center
Fri 11:07:40 PM 41.7772 -82.2342 292° West 163 188 5,800 -58 Descending Cleveland Center
Fri 11:08:46 PM 41.7992 -82.2933 296° West 162 186 5,800  Level Cleveland Center
Fri 11:09:47 PM 41.8211 -82.3525 296° West 162 186 5,800  Level Cleveland Center
Fri 11:10:48 PM 41.8392 -82.4031 296° West 161 185 5,800 50 Level Cleveland Center
Fri 11:11:48 PM 41.8592 -82.4567 297° West 159 183 5,900 50 Climbing Cleveland Center
Fri 11:12:49 PM 41.8769 -82.5103 294° West 159 183 5,900  Level Cleveland Center
Fri 11:13:49 PM 41.8969 -82.5639 297° West 159 183 5,900  Level Cleveland Center
Fri 11:14:44 PM 41.9169 -82.6119 299° West 158 182 5,900  Level Cleveland Center
Fri 11:15:45 PM 41.9347 -82.6656 294° West 158 182 5,900  Level Cleveland Center
Fri 11:16:45 PM 41.9547 -82.7192 297° West 158 182 5,900  Level Cleveland Center
Fri 11:17:46 PM 41.9703 -82.7728 291° West 160 184 5,900  Level Cleveland Center
Fri 11:18:46 PM 42.0028 -82.8214 312° West 175 201 5,900  Level Cleveland Center
Fri 11:19:53 PM 42.0436 -82.8592 326° Northwest 170 196 5,900  Level Cleveland Center
Fri 11:20:54 PM 42.0783 -82.9022 317° Northwest 168 193 5,900  Level Cleveland Center
Fri 11:21:54 PM 42.1150 -82.9400 323° Northwest 166 191 5,900  Level Cleveland Center
Fri 11:22:55 PM 42.1389 -82.9914 302° West 160 184 5,900  Level Cleveland Center
Fri 11:24:02 PM 42.1669 -83.0483 304° West 158 182 5,900 -47 Level Cleveland Center
Fri 11:25:02 PM 42.1825 -83.1022 291° West 157 181 5,800 -298 Descending Cleveland Center
Fri 11:26:03 PM 42.2019 -83.1592 295° West 168 193 5,300 -443 Descending Cleveland Center
Fri 11:27:04 PM 42.2236 -83.2189 296° West 173 199 4,900 -198 Descending Cleveland Center
Fri 11:28:04 PM 42.2411 -83.2786 292° West 161 185 4,900 -149 Level Cleveland Center
Fri 11:29:05 PM 42.2603 -83.3383 293° West 174 200 4,600 -496 Descending Cleveland Center
Fri 11:30:05 PM 42.2800 -83.3953 295° West 166 191 3,900 -992 Descending Cleveland Center
Fri 11:31:06 PM 42.2889 -83.4519 282° West 175 201 2,600 -1,279 Descending Cleveland Center
Fri 11:32:07 PM 42.2606 -83.5039 234° Southwest 163 188 1,300 -1,279 Descending Cleveland Center

Login

Don't have an account? Register now (free) for customized features, flight alerts, and more!